Time;durP1;ratioP1;P1;durP2;ratioP2;P2;SDS_P1;SDS_P2;PMS_P1;PMS_P2;Temp;Humidity;BMP_temperature;BMP_pressure;BME280_temperature;BME280_humidity;BME280_pressure;Samples;Min_cycle;Max_cycle;Signal;HPM_P1;HPM_P2
2022/07/25 00:00:38;;;;;;;2.65;2.40;;;22.30;99.90;;;;;;5075120;28;20153;-72
2022/07/25 00:03:04;;;;;;;7.55;2.72;;;22.30;99.90;;;;;;5070537;28;20054;-73
2022/07/25 00:05:30;;;;;;;2.55;2.35;;;22.30;99.90;;;;;;5077871;28;20036;-75
2022/07/25 00:07:55;;;;;;;2.53;2.33;;;22.30;99.90;;;;;;5066443;28;20822;-77
2022/07/25 00:10:21;;;;;;;4.75;2.75;;;22.40;99.90;;;;;;5077267;28;20178;-74
2022/07/25 00:12:47;;;;;;;5.63;3.22;;;22.40;99.90;;;;;;5075912;28;20048;-75
2022/07/25 00:15:12;;;;;;;2.53;2.33;;;22.40;99.90;;;;;;5072250;28;20051;-75
2022/07/25 00:17:39;;;;;;;3.40;3.10;;;22.30;99.90;;;;;;5076424;28;20040;-72
2022/07/25 00:20:05;;;;;;;2.70;2.50;;;22.30;99.90;;;;;;5077478;28;20040;-75
2022/07/25 00:22:31;;;;;;;4.22;3.22;;;22.30;99.90;;;;;;5078799;28;20401;-72
2022/07/25 00:24:57;;;;;;;3.92;2.70;;;22.20;99.90;;;;;;5077595;28;20593;-72
2022/07/25 00:27:23;;;;;;;4.43;3.05;;;22.20;99.90;;;;;;5060387;28;20430;-75
2022/07/25 00:29:49;;;;;;;4.57;2.67;;;22.20;99.90;;;;;;5075138;28;20036;-75
2022/07/25 00:32:15;;;;;;;3.03;2.70;;;22.10;99.90;;;;;;5077139;28;20048;-73
2022/07/25 00:34:40;;;;;;;2.55;2.28;;;22.10;99.90;;;;;;5077343;28;20052;-75
2022/07/25 00:37:06;;;;;;;3.78;2.30;;;22.10;99.90;;;;;;5078743;28;20106;-75
2022/07/25 00:39:32;;;;;;;2.90;2.70;;;22.10;99.90;;;;;;5077317;28;20055;-76
2022/07/25 00:41:57;;;;;;;3.13;2.83;;;22.10;99.90;;;;;;5078487;28;20047;-73
2022/07/25 00:44:25;;;;;;;4.70;2.88;;;22.00;99.90;;;;;;5078553;28;20040;-73
2022/07/25 00:46:51;;;;;;;3.60;2.58;;;21.90;99.90;;;;;;5076852;28;20048;-75
2022/07/25 00:49:17;;;;;;;3.72;3.22;;;21.80;99.90;;;;;;5079545;28;20057;-73
2022/07/25 00:51:43;;;;;;;2.97;2.47;;;21.80;99.90;;;;;;5077573;28;20492;-75
2022/07/25 00:54:10;;;;;;;3.90;2.90;;;21.70;99.90;;;;;;5079294;28;20036;-76
2022/07/25 00:56:36;;;;;;;4.13;3.35;;;21.70;99.90;;;;;;5077259;28;20044;-75
2022/07/25 00:59:02;;;;;;;4.07;3.47;;;21.60;99.90;;;;;;5079047;28;20082;-74
2022/07/25 01:01:28;;;;;;;4.65;3.15;;;21.50;99.90;;;;;;5074925;28;20133;-74
2022/07/25 01:03:54;;;;;;;4.32;3.30;;;21.50;99.90;;;;;;5078189;28;20052;-76
2022/07/25 01:06:20;;;;;;;5.22;3.95;;;21.40;99.90;;;;;;5076221;28;20789;-73
2022/07/25 01:08:46;;;;;;;6.47;4.22;;;21.40;99.90;;;;;;5077828;28;20044;-75
2022/07/25 01:11:12;;;;;;;4.53;4.00;;;21.30;99.90;;;;;;5079136;28;20044;-75
2022/07/25 01:13:38;;;;;;;4.40;3.85;;;21.20;99.90;;;;;;5076365;28;20094;-75
2022/07/25 01:16:04;;;;;;;5.35;4.30;;;21.20;99.90;;;;;;5079835;28;20048;-75
2022/07/25 01:18:29;;;;;;;5.22;3.92;;;21.20;99.90;;;;;;5077844;28;20048;-75
2022/07/25 01:20:55;;;;;;;4.43;3.92;;;21.10;99.90;;;;;;5076138;28;20059;-75
2022/07/25 01:23:21;;;;;;;6.93;4.90;;;21.10;99.90;;;;;;5076398;28;20893;-74
2022/07/25 01:25:46;;;;;;;5.18;4.68;;;21.00;99.90;;;;;;5077451;28;20113;-72
2022/07/25 01:28:12;;;;;;;6.10;4.97;;;21.00;99.90;;;;;;5077013;28;20123;-75
2022/07/25 01:30:38;;;;;;;7.43;5.10;;;20.90;99.90;;;;;;5078474;28;20492;-75
2022/07/25 01:33:03;;;;;;;5.53;4.75;;;20.80;99.90;;;;;;5074613;28;20055;-75
2022/07/25 01:35:29;;;;;;;5.78;4.80;;;20.80;99.90;;;;;;5074456;28;20093;-73
2022/07/25 01:37:55;;;;;;;8.48;5.30;;;20.70;99.90;;;;;;5072580;28;20044;-74
2022/07/25 01:40:20;;;;;;;7.47;5.47;;;20.70;99.90;;;;;;5075875;28;20131;-73
2022/07/25 01:42:46;;;;;;;6.72;4.57;;;20.70;99.90;;;;;;5077102;28;20043;-74
2022/07/25 01:45:12;;;;;;;8.43;5.00;;;20.70;99.90;;;;;;5077620;28;20503;-75
2022/07/25 01:47:38;;;;;;;7.80;5.18;;;20.70;99.90;;;;;;5078135;28;20043;-75
2022/07/25 01:50:05;;;;;;;8.05;5.55;;;20.60;99.90;;;;;;5076605;28;20057;-75
2022/07/25 01:52:31;;;;;;;7.82;6.25;;;20.60;99.90;;;;;;5078128;28;20067;-75
2022/07/25 01:54:56;;;;;;;5.93;4.70;;;20.60;99.90;;;;;;5076830;28;20824;-72
2022/07/25 01:57:22;;;;;;;7.25;5.35;;;20.60;99.90;;;;;;5077652;28;20117;-75
2022/07/25 01:59:48;;;;;;;9.80;5.32;;;20.60;99.90;;;;;;5078181;28;20056;-75
2022/07/25 02:02:13;;;;;;;7.60;5.35;;;20.50;99.90;;;;;;5076539;28;20791;-76
2022/07/25 02:04:39;;;;;;;9.13;5.80;;;20.50;99.90;;;;;;5075719;28;20560;-73
2022/07/25 02:07:05;;;;;;;6.97;6.10;;;20.50;99.90;;;;;;5077267;28;20043;-75
2022/07/25 02:09:31;;;;;;;6.43;5.78;;;20.50;99.90;;;;;;5078612;28;20082;-75
2022/07/25 02:11:57;;;;;;;8.27;6.10;;;20.40;99.90;;;;;;5078190;28;20036;-75
2022/07/25 02:14:22;;;;;;;6.80;4.93;;;20.40;99.90;;;;;;5078877;28;20073;-75
2022/07/25 02:16:48;;;;;;;11.45;7.20;;;20.30;99.90;;;;;;5078221;28;20040;-74
2022/07/25 02:19:14;;;;;;;10.48;7.65;;;20.30;99.90;;;;;;5059682;28;20052;-74
2022/07/25 02:21:40;;;;;;;6.85;6.15;;;20.20;99.90;;;;;;5069585;28;20582;-76
2022/07/25 02:24:06;;;;;;;9.48;7.75;;;20.10;99.90;;;;;;5078221;28;20066;-76
2022/07/25 02:26:32;;;;;;;10.60;8.48;;;20.10;99.90;;;;;;5076066;28;20051;-75
2022/07/25 02:28:58;;;;;;;8.70;7.18;;;20.00;99.90;;;;;;5076243;28;20055;-73
2022/07/25 02:31:23;;;;;;;9.02;7.47;;;20.00;99.90;;;;;;5078630;28;20048;-76
2022/07/25 02:33:49;;;;;;;8.02;7.30;;;19.90;99.90;;;;;;5076361;28;20554;-72
2022/07/25 02:36:15;;;;;;;10.20;7.32;;;19.90;99.90;;;;;;5077413;28;20044;-72
2022/07/25 02:38:40;;;;;;;10.35;7.78;;;19.80;99.90;;;;;;5074441;28;20036;-76
2022/07/25 02:41:06;;;;;;;9.13;6.88;;;19.80;99.90;;;;;;5077174;28;20047;-74
2022/07/25 02:43:32;;;;;;;12.05;8.00;;;19.70;99.90;;;;;;5078442;28;20504;-73
2022/07/25 02:45:58;;;;;;;10.98;7.32;;;19.70;99.90;;;;;;5075826;28;20079;-75
2022/07/25 02:48:24;;;;;;;9.15;6.68;;;19.70;99.90;;;;;;5077412;28;20425;-75
2022/07/25 02:50:49;;;;;;;6.93;6.15;;;19.70;99.90;;;;;;5077798;28;20071;-75
2022/07/25 02:53:15;;;;;;;9.18;7.32;;;19.70;99.90;;;;;;5076865;28;20079;-75
2022/07/25 02:55:41;;;;;;;9.68;7.63;;;19.70;99.90;;;;;;5077589;28;20392;-73
2022/07/25 02:58:06;;;;;;;10.13;7.82;;;19.70;99.90;;;;;;5075474;28;20121;-75
2022/07/25 03:00:32;;;;;;;9.90;7.95;;;19.60;99.90;;;;;;5078047;28;20059;-75
2022/07/25 03:02:58;;;;;;;7.53;6.40;;;19.60;99.90;;;;;;5076383;28;20056;-76
2022/07/25 03:05:24;;;;;;;8.70;6.43;;;19.60;99.90;;;;;;5077853;28;20074;-76
2022/07/25 03:07:50;;;;;;;7.72;6.93;;;19.60;99.90;;;;;;5077458;28;20484;-74
2022/07/25 03:10:15;;;;;;;7.10;6.03;;;19.60;99.90;;;;;;5075893;28;20051;-75
2022/07/25 03:12:42;;;;;;;6.70;6.05;;;19.60;99.90;;;;;;5077499;28;20043;-74
2022/07/25 03:15:10;;;;;;;7.43;6.20;;;19.60;99.90;;;;;;5077503;28;20762;-75
2022/07/25 03:17:36;;;;;;;8.63;6.90;;;19.70;99.90;;;;;;5074348;28;20117;-75
2022/07/25 03:20:01;;;;;;;7.20;6.50;;;19.70;99.90;;;;;;5076768;28;20055;-73
2022/07/25 03:22:27;;;;;;;10.13;6.28;;;19.80;99.90;;;;;;5076291;28;20052;-75
2022/07/25 03:24:53;;;;;;;7.70;6.82;;;19.80;99.90;;;;;;5076716;28;20055;-76
2022/07/25 03:27:19;;;;;;;6.22;5.63;;;19.90;99.90;;;;;;5076664;28;20605;-75
2022/07/25 03:29:44;;;;;;;7.10;6.15;;;19.90;99.90;;;;;;5059365;28;20039;-74
2022/07/25 03:32:10;;;;;;;7.40;6.65;;;19.80;99.90;;;;;;5075527;28;20043;-75
2022/07/25 03:34:36;;;;;;;6.68;5.22;;;19.80;99.90;;;;;;5074197;28;20058;-74
2022/07/25 03:37:03;;;;;;;8.45;6.80;;;19.80;99.90;;;;;;5075769;28;20059;-75
2022/07/25 03:39:29;;;;;;;7.07;6.38;;;19.90;99.90;;;;;;5074584;28;20086;-75
2022/07/25 03:41:55;;;;;;;6.35;5.72;;;19.90;99.90;;;;;;5076147;28;20154;-74
2022/07/25 03:44:22;;;;;;;6.55;5.95;;;19.80;99.90;;;;;;5077093;28;20331;-73
2022/07/25 03:46:48;;;;;;;8.88;8.00;;;19.80;99.90;;;;;;5071780;28;20353;-75
2022/07/25 03:49:14;;;;;;;10.20;6.30;;;19.90;99.90;;;;;;5074917;28;20043;-75
2022/07/25 03:51:40;;;;;;;8.05;6.00;;;19.90;99.90;;;;;;5075621;28;20463;-75
2022/07/25 03:54:07;;;;;;;8.77;6.80;;;19.90;99.90;;;;;;5075247;28;20055;-76
2022/07/25 03:56:39;;;;;;;7.07;5.97;;;19.90;99.90;;;;;;5074482;28;20592;-75
2022/07/25 03:59:05;;;;;;;6.73;6.10;;;20.00;99.90;;;;;;5076700;28;20052;-72
2022/07/25 04:01:31;;;;;;;8.60;6.28;;;20.00;99.90;;;;;;5075468;28;20052;-76
2022/07/25 04:03:57;;;;;;;6.55;5.40;;;20.00;99.90;;;;;;5076287;28;20156;-73
2022/07/25 04:06:23;;;;;;;6.20;5.60;;;20.00;99.90;;;;;;5076703;28;20051;-76
2022/07/25 04:08:49;;;;;;;6.63;5.47;;;20.10;99.90;;;;;;5076864;28;20048;-76
2022/07/25 04:11:15;;;;;;;8.52;7.28;;;20.10;99.90;;;;;;5075539;28;20081;-73
2022/07/25 04:13:41;;;;;;;7.72;6.75;;;20.10;99.90;;;;;;5074740;28;20056;-74
2022/07/25 04:16:08;;;;;;;9.05;5.78;;;20.10;99.90;;;;;;5076128;28;20047;-76
2022/07/25 04:18:33;;;;;;;8.45;6.10;;;20.10;99.90;;;;;;5075462;28;20048;-76
2022/07/25 04:21:01;;;;;;;8.05;7.05;;;20.10;99.90;;;;;;5075725;28;20056;-76
2022/07/25 04:23:27;;;;;;;7.57;6.88;;;20.10;99.90;;;;;;5076221;28;20475;-75
2022/07/25 04:25:54;;;;;;;12.50;8.00;;;20.10;99.90;;;;;;5075732;28;20051;-73
2022/07/25 04:28:19;;;;;;;10.82;7.80;;;20.20;99.90;;;;;;5068327;28;20086;-77
2022/07/25 04:30:45;;;;;;;7.95;7.13;;;20.30;99.90;;;;;;5073868;28;20068;-76
2022/07/25 04:33:12;;;;;;;9.55;7.18;;;20.40;99.90;;;;;;5077300;28;20844;-75
2022/07/25 04:35:38;;;;;;;8.90;7.35;;;20.50;99.90;;;;;;5074656;28;20056;-75
2022/07/25 04:38:05;;;;;;;9.68;8.32;;;20.60;99.90;;;;;;5077357;28;20056;-75
2022/07/25 04:40:31;;;;;;;9.43;8.43;;;20.60;99.90;;;;;;5074981;28;20052;-74
2022/07/25 04:42:57;;;;;;;9.55;8.18;;;20.70;99.90;;;;;;5076500;28;20235;-72
2022/07/25 04:45:22;;;;;;;11.13;7.60;;;20.80;99.90;;;;;;5076402;28;20582;-75
2022/07/25 04:47:49;;;;;;;10.82;8.18;;;20.90;99.90;;;;;;5076046;28;20048;-75
2022/07/25 04:50:15;;;;;;;9.60;7.78;;;21.00;99.90;;;;;;5075162;28;20578;-74
2022/07/25 04:52:41;;;;;;;8.82;6.15;;;21.20;99.90;;;;;;5077411;28;20048;-74
2022/07/25 04:55:07;;;;;;;9.85;7.40;;;21.30;99.90;;;;;;5076918;28;20904;-74
2022/07/25 04:57:36;;;;;;;12.23;8.50;;;21.40;99.90;;;;;;5075669;28;20043;-75
2022/07/25 05:00:04;;;;;;;11.63;8.93;;;21.50;99.90;;;;;;5077535;28;20735;-73
2022/07/25 05:02:30;;;;;;;12.05;8.90;;;21.50;99.90;;;;;;5075501;28;20048;-75
2022/07/25 05:04:56;;;;;;;14.02;8.77;;;21.60;99.90;;;;;;5074568;28;20051;-75
2022/07/25 05:07:21;;;;;;;12.40;8.80;;;21.60;99.90;;;;;;5075899;28;20044;-74
2022/07/25 05:09:47;;;;;;;9.40;8.18;;;21.60;99.90;;;;;;5076934;28;20051;-74
2022/07/25 05:12:13;;;;;;;12.95;8.57;;;21.60;99.90;;;;;;5077200;28;20083;-75
2022/07/25 05:14:38;;;;;;;10.35;8.43;;;21.60;99.90;;;;;;5074809;28;20047;-74
2022/07/25 05:17:04;;;;;;;11.50;8.75;;;21.70;99.90;;;;;;5076068;28;20058;-75
2022/07/25 05:19:30;;;;;;;11.50;8.02;;;21.70;99.90;;;;;;5076662;28;20581;-75
2022/07/25 05:21:56;;;;;;;9.98;8.00;;;21.80;99.90;;;;;;5075870;28;20058;-75
2022/07/25 05:24:22;;;;;;;11.82;8.55;;;21.90;99.90;;;;;;5076626;28;20052;-75
2022/07/25 05:26:49;;;;;;;8.68;7.53;;;22.00;99.90;;;;;;5075179;28;20056;-75
2022/07/25 05:29:14;;;;;;;10.05;7.78;;;22.10;99.90;;;;;;5075264;28;20097;-73
2022/07/25 05:31:40;;;;;;;10.07;8.32;;;22.10;99.90;;;;;;5076493;28;20059;-75
2022/07/25 05:34:06;;;;;;;13.07;9.50;;;22.20;99.90;;;;;;5075300;28;20052;-76
2022/07/25 05:36:32;;;;;;;10.90;8.18;;;22.30;99.90;;;;;;5076128;28;20048;-74
2022/07/25 05:38:58;;;;;;;11.13;7.68;;;22.30;99.90;;;;;;5075321;28;20165;-73
2022/07/25 05:41:24;;;;;;;10.38;8.40;;;22.40;99.90;;;;;;5074161;28;20048;-74
2022/07/25 05:43:50;;;;;;;16.35;8.70;;;22.40;99.90;;;;;;5075538;28;20219;-75
2022/07/25 05:46:15;;;;;;;12.57;8.63;;;22.40;99.90;;;;;;5074995;28;20268;-72
2022/07/25 05:48:42;;;;;;;12.02;8.02;;;22.50;99.90;;;;;;5075887;28;20048;-75
2022/07/25 05:51:08;;;;;;;11.82;8.85;;;22.50;99.90;;;;;;5075269;28;20155;-75
2022/07/25 05:53:35;;;;;;;8.82;7.05;;;22.60;99.90;;;;;;5075084;28;20047;-75
2022/07/25 05:56:00;;;;;;;9.63;8.23;;;22.70;99.90;;;;;;5073656;28;20036;-73
2022/07/25 05:58:26;;;;;;;10.57;7.78;;;22.80;99.90;;;;;;5073415;28;20048;-75
2022/07/25 06:00:52;;;;;;;10.40;7.57;;;22.80;99.90;;;;;;5074054;28;20070;-75
2022/07/25 06:03:18;;;;;;;13.70;8.40;;;22.90;99.90;;;;;;5074718;28;20122;-73
2022/07/25 06:05:45;;;;;;;10.55;7.85;;;23.00;99.90;;;;;;5072792;28;20050;-73
2022/07/25 06:08:12;;;;;;;12.77;8.25;;;23.10;99.90;;;;;;5073807;28;20056;-75
2022/07/25 06:10:38;;;;;;;10.57;8.13;;;23.10;99.90;;;;;;5075115;28;20071;-75
2022/07/25 06:13:04;;;;;;;10.60;8.20;;;23.30;99.90;;;;;;5074961;28;20541;-72
2022/07/25 06:15:30;;;;;;;9.75;7.53;;;23.30;99.90;;;;;;5077999;28;20044;-75
2022/07/25 06:17:55;;;;;;;9.07;7.90;;;23.50;99.90;;;;;;5076198;28;20127;-80
2022/07/25 06:20:22;;;;;;;10.32;7.93;;;23.60;99.90;;;;;;5077936;28;20812;-73
2022/07/25 06:22:47;;;;;;;12.63;8.93;;;23.70;99.90;;;;;;5076426;28;20036;-75
2022/07/25 06:25:14;;;;;;;11.25;8.30;;;23.80;99.90;;;;;;5077783;28;20055;-76
2022/07/25 06:27:40;;;;;;;12.80;7.78;;;23.90;99.90;;;;;;5075359;28;20044;-75
2022/07/25 06:30:07;;;;;;;11.20;8.60;;;24.00;99.90;;;;;;5077215;28;20055;-75
2022/07/25 06:32:33;;;;;;;10.90;8.85;;;24.00;99.90;;;;;;5073580;28;20059;-75
2022/07/25 06:34:59;;;;;;;12.10;8.68;;;24.00;99.90;;;;;;5073501;28;20044;-74
2022/07/25 06:37:25;;;;;;;10.52;8.57;;;23.90;99.90;;;;;;5074336;28;20044;-74
2022/07/25 06:39:50;;;;;;;10.02;8.43;;;23.90;99.90;;;;;;5072402;28;20403;-76
2022/07/25 06:42:16;;;;;;;25.42;9.10;;;23.90;99.90;;;;;;5073710;28;20058;-76
2022/07/25 06:44:43;;;;;;;11.20;8.32;;;24.00;99.90;;;;;;5072855;28;20044;-75
2022/07/25 06:47:11;;;;;;;11.10;8.63;;;24.20;99.90;;;;;;5073936;28;20074;-76
2022/07/25 06:49:43;;;;;;;8.93;7.43;;;24.70;99.90;;;;;;5072469;28;20040;-74
2022/07/25 06:52:09;;;;;;;11.00;8.57;;;25.30;99.90;;;;;;5073633;28;20067;-76
2022/07/25 06:54:35;;;;;;;10.75;9.35;;;25.50;99.90;;;;;;5073332;28;20048;-73
2022/07/25 06:57:01;;;;;;;13.82;9.15;;;25.80;99.90;;;;;;5082541;28;20054;-76
2022/07/25 06:59:27;;;;;;;8.70;7.82;;;26.20;99.90;;;;;;5072477;28;20091;-75
2022/07/25 07:01:53;;;;;;;11.27;8.40;;;26.90;99.60;;;;;;5074778;28;20044;-75
2022/07/25 07:04:18;;;;;;;10.02;7.60;;;26.90;98.90;;;;;;5070763;28;20940;-76
2022/07/25 07:06:44;;;;;;;8.52;7.25;;;26.90;99.00;;;;;;5074869;28;20076;-75
2022/07/25 07:09:10;;;;;;;10.07;7.85;;;27.50;98.70;;;;;;5071938;28;20124;-75
2022/07/25 07:11:42;;;;;;;9.38;8.07;;;28.10;97.90;;;;;;5073119;28;20121;-78
2022/07/25 07:14:07;;;;;;;9.33;8.20;;;28.70;97.00;;;;;;4713431;28;10000109;-79
2022/07/25 07:16:33;;;;;;;9.82;8.82;;;28.90;96.40;;;;;;5073831;28;20288;-78
2022/07/25 07:18:58;;;;;;;8.80;7.90;;;28.50;95.80;;;;;;5069808;28;20077;-78
2022/07/25 07:21:24;;;;;;;10.02;8.63;;;28.10;95.80;;;;;;5070693;28;20063;-78
2022/07/25 07:23:50;;;;;;;9.95;7.50;;;27.60;95.90;;;;;;5069248;28;20040;-78
2022/07/25 07:26:16;;;;;;;9.02;8.05;;;27.20;94.90;;;;;;5071377;28;20166;-78
2022/07/25 07:28:41;;;;;;;10.23;9.05;;;26.80;96.70;;;;;;5071584;28;21222;-78
2022/07/25 07:31:07;;;;;;;17.77;9.00;;;26.50;96.80;;;;;;5062526;28;20116;-78
2022/07/25 07:33:34;;;;;;;12.88;8.35;;;26.40;97.10;;;;;;5064915;28;20048;-78
2022/07/25 07:36:00;;;;;;;11.27;8.48;;;26.40;97.20;;;;;;5067035;28;20083;-79
2022/07/25 07:38:26;;;;;;;11.55;8.38;;;26.20;97.40;;;;;;5067395;28;20086;-78
2022/07/25 07:40:52;;;;;;;11.98;8.68;;;26.10;97.40;;;;;;5069574;28;20048;-77
2022/07/25 07:43:19;;;;;;;9.35;8.05;;;26.00;97.80;;;;;;5066391;28;20040;-78
2022/07/25 07:45:45;;;;;;;10.60;9.20;;;26.00;98.30;;;;;;5068728;28;20102;-77
2022/07/25 07:48:11;;;;;;;10.15;8.75;;;25.90;98.00;;;;;;5068088;28;20040;-78
2022/07/25 07:50:37;;;;;;;9.63;8.65;;;26.00;98.30;;;;;;5040603;28;20055;-78
2022/07/25 07:53:03;;;;;;;10.20;8.98;;;25.90;98.30;;;;;;5068563;28;20051;-78
2022/07/25 07:55:44;;;;;;;12.80;8.63;;;25.80;98.30;;;;;;5071694;28;20040;-77
2022/07/25 07:58:18;;;;;;;10.65;8.90;;;25.90;98.50;;;;;;5066594;28;20105;-77
2022/07/25 08:00:46;;;;;;;10.30;8.05;;;26.10;98.40;;;;;;5070850;28;20040;-77
2022/07/25 08:03:12;;;;;;;11.85;8.60;;;26.30;98.50;;;;;;5068405;28;20044;-75
2022/07/25 08:05:41;;;;;;;11.55;8.52;;;26.40;98.40;;;;;;5066808;28;20143;-74
2022/07/25 08:08:08;;;;;;;10.68;8.18;;;26.40;98.30;;;;;;5067989;28;20091;-75
2022/07/25 08:10:36;;;;;;;10.57;8.30;;;26.50;98.30;;;;;;5071417;28;20044;-73
2022/07/25 08:13:29;;;;;;;12.18;8.40;;;26.40;98.10;;;;;;5067886;28;20617;-75
2022/07/25 08:15:57;;;;;;;11.75;7.38;;;26.40;98.10;;;;;;5068502;28;20159;-75
2022/07/25 08:18:24;;;;;;;10.80;8.23;;;26.20;98.10;;;;;;5069085;28;20052;-75
2022/07/25 08:20:50;;;;;;;8.50;7.25;;;26.00;97.90;;;;;;5069949;28;20570;-73
2022/07/25 08:23:17;;;;;;;10.98;8.38;;;26.00;97.90;;;;;;5068683;28;20584;-74
2022/07/25 08:25:44;;;;;;;9.10;6.75;;;25.90;98.10;;;;;;5080916;28;20430;-74
2022/07/25 08:28:10;;;;;;;9.75;7.72;;;25.80;98.40;;;;;;5075371;28;20052;-73
2022/07/25 08:30:37;;;;;;;8.43;6.35;;;25.70;98.70;;;;;;5076460;28;20585;-73
2022/07/25 08:33:05;;;;;;;7.38;5.57;;;25.70;99.00;;;;;;5079510;28;20047;-73
2022/07/25 08:35:33;;;;;;;10.55;7.22;;;25.70;99.10;;;;;;5076618;28;20044;-73
2022/07/25 08:38:00;;;;;;;11.52;6.88;;;25.80;99.00;;;;;;5079456;28;20044;-74
2022/07/25 08:40:28;;;;;;;8.50;6.22;;;26.00;98.90;;;;;;5080325;28;20052;-73
2022/07/25 08:42:55;;;;;;;8.00;5.65;;;26.40;98.70;;;;;;5074869;28;20048;-75
2022/07/25 08:45:22;;;;;;;11.75;7.43;;;26.60;98.20;;;;;;5077425;28;20055;-73
2022/07/25 08:47:49;;;;;;;10.70;6.78;;;26.70;97.80;;;;;;5087920;28;20047;-74
2022/07/25 08:50:17;;;;;;;9.10;6.53;;;26.60;97.50;;;;;;5072497;28;20044;-73
2022/07/25 08:52:46;;;;;;;5.95;5.22;;;26.50;97.60;;;;;;5073715;28;20412;-74
2022/07/25 08:55:15;;;;;;;8.90;6.47;;;26.30;97.70;;;;;;5074613;28;20274;-74
2022/07/25 08:57:42;;;;;;;5.80;4.55;;;26.00;97.60;;;;;;5073799;28;20971;-73
2022/07/25 09:00:11;;;;;;;5.25;4.60;;;26.00;97.80;;;;;;5062637;28;20086;-73
2022/07/25 09:02:37;;;;;;;5.90;4.85;;;25.80;98.00;;;;;;5083216;28;20055;-72
2022/07/25 09:05:04;;;;;;;6.28;5.57;;;25.80;98.10;;;;;;5073576;28;20046;-73
2022/07/25 09:07:36;;;;;;;4.53;4.13;;;25.70;97.80;;;;;;5072897;28;20082;-74
2022/07/25 09:10:11;;;;;;;;;;;25.60;98.10;;;;;;5076824;28;20062;-73
2022/07/25 09:12:37;;;;;;;6.53;4.55;;;25.50;98.10;;;;;;5074310;28;20912;-72
2022/07/25 09:15:03;;;;;;;8.88;5.13;;;25.50;98.50;;;;;;5080042;28;20039;-74
2022/07/25 09:17:29;;;;;;;6.85;4.88;;;25.50;98.70;;;;;;5075860;28;20059;-73
2022/07/25 09:19:56;;;;;;;5.38;4.78;;;25.50;98.80;;;;;;5086241;28;20044;-74
2022/07/25 09:22:22;;;;;;;5.95;4.80;;;25.50;98.90;;;;;;5085063;28;20125;-72
2022/07/25 09:24:48;;;;;;;5.75;4.40;;;25.60;98.90;;;;;;5077100;28;20055;-75
2022/07/25 09:27:16;;;;;;;5.57;4.90;;;25.80;99.00;;;;;;5076289;28;20822;-78
2022/07/25 09:29:42;;;;;;;7.20;4.90;;;26.00;99.00;;;;;;5076712;28;20835;-78
2022/07/25 09:32:20;;;;;;;7.35;5.28;;;26.20;99.20;;;;;;5076725;28;20887;-77
2022/07/25 09:34:47;;;;;;;7.72;4.22;;;26.40;98.70;;;;;;5075092;28;20053;-75
2022/07/25 09:37:15;;;;;;;3.63;2.70;;;26.60;98.50;;;;;;5076175;28;20044;-75
2022/07/25 09:39:49;;;;;;;2.22;2.03;;;26.70;95.80;;;;;;5077423;28;20076;-73
2022/07/25 09:42:22;;;;;;;3.30;2.08;;;26.50;93.50;;;;;;5079511;28;20052;-75
2022/07/25 09:45:02;;;;;;;3.72;1.88;;;26.50;95.20;;;;;;5078864;28;20079;-77
2022/07/25 09:47:32;;;;;;;3.50;2.28;;;26.30;94.10;;;;;;5077936;28;20054;-74
2022/07/25 09:49:57;;;;;;;5.07;2.15;;;26.60;94.70;;;;;;5077954;28;20121;-74
2022/07/25 09:52:23;;;;;;;2.28;2.08;;;26.70;94.70;;;;;;5076353;28;20043;-75
2022/07/25 09:54:49;;;;;;;3.95;2.22;;;27.50;94.50;;;;;;5074604;28;20032;-77
2022/07/25 09:57:15;;;;;;;1.98;1.77;;;28.60;94.20;;;;;;5077735;28;20617;-76
2022/07/25 09:59:41;;;;;;;3.80;2.08;;;29.00;93.20;;;;;;5077224;28;20044;-78
2022/07/25 10:02:25;;;;;;;2.40;2.20;;;28.80;93.10;;;;;;5082434;28;20051;-77
2022/07/25 10:05:07;;;;;;;3.35;2.10;;;28.80;92.00;;;;;;5070926;28;20036;-77
2022/07/25 10:07:40;;;;;;;3.55;1.73;;;29.10;90.00;;;;;;5082356;28;20047;-76
2022/07/25 10:10:06;;;;;;;1.90;1.75;;;29.00;91.20;;;;;;5075199;28;20805;-78
2022/07/25 10:12:32;;;;;;;1.80;1.70;;;28.80;91.70;;;;;;5075429;28;20039;-77
2022/07/25 10:15:08;;;;;;;4.80;1.92;;;28.80;91.50;;;;;;5077297;28;20090;-73
2022/07/25 10:17:36;;;;;;;3.50;2.08;;;28.70;90.20;;;;;;5075272;28;20055;-78
2022/07/25 10:20:05;;;;;;;2.65;2.05;;;28.80;91.10;;;;;;5077497;28;20070;-77
2022/07/25 10:22:38;;;;;;;3.17;1.80;;;29.20;91.20;;;;;;5075465;28;20052;-77
2022/07/25 10:25:12;;;;;;;2.15;1.98;;;29.30;89.60;;;;;;5076562;28;20123;-75
2022/07/25 10:27:51;;;;;;;2.28;1.98;;;29.40;89.40;;;;;;5066252;28;20521;-75
2022/07/25 10:30:22;;;;;;;2.40;1.95;;;29.50;90.00;;;;;;5074190;28;20087;-74
2022/07/25 10:32:49;;;;;;;1.40;1.30;;;29.70;90.30;;;;;;5076765;28;20040;-76
2022/07/25 10:35:16;;;;;;;4.60;1.60;;;29.60;89.70;;;;;;5075207;28;20040;-74
2022/07/25 10:37:44;;;;;;;3.65;1.45;;;29.20;89.70;;;;;;5093640;28;20083;-76
2022/07/25 10:40:10;;;;;;;2.38;1.20;;;28.70;90.10;;;;;;5077169;28;20400;-75
2022/07/25 10:42:37;;;;;;;3.65;1.10;;;28.30;90.60;;;;;;5077835;28;20062;-76
2022/07/25 10:45:08;;;;;;;1.40;1.08;;;28.30;91.20;;;;;;5076833;28;20044;-78
2022/07/25 10:47:41;;;;;;;1.55;1.30;;;28.50;91.10;;;;;;5076615;28;20450;-79
2022/07/25 10:50:10;;;;;;;1.60;1.25;;;28.80;91.30;;;;;;5076976;28;20083;-77
2022/07/25 10:52:44;;;;;;;2.17;1.98;;;28.70;90.90;;;;;;5081523;28;20831;-74
2022/07/25 10:55:22;;;;;;;4.57;1.38;;;28.50;91.50;;;;;;5081322;28;20154;-76
2022/07/25 10:58:04;;;;;;;4.20;1.30;;;28.20;91.70;;;;;;5081918;28;20047;-75
2022/07/25 11:00:32;;;;;;;2.40;1.27;;;27.80;91.70;;;;;;5076609;28;20075;-78
2022/07/25 11:02:57;;;;;;;4.20;1.63;;;27.30;92.50;;;;;;5075784;28;20048;-72
2022/07/25 11:05:23;;;;;;;2.10;1.65;;;27.00;94.10;;;;;;5077810;28;20480;-75
2022/07/25 11:07:51;;;;;;;4.85;1.60;;;26.40;95.90;;;;;;5078618;28;20051;-76
2022/07/25 11:10:25;;;;;;;1.65;1.55;;;26.00;97.40;;;;;;5077338;28;20817;-75
2022/07/25 11:12:51;;;;;;;2.88;1.52;;;25.50;99.70;;;;;;5074786;28;20052;-75
2022/07/25 11:15:23;;;;;;;1.80;1.60;;;25.30;99.90;;;;;;5075348;28;20358;-73
2022/07/25 11:17:49;;;;;;;;;;;25.30;99.90;;;;;;5077040;28;20181;-75
2022/07/25 11:20:16;;;;;;;6.20;2.13;;;25.30;99.90;;;;;;5076663;28;19927;-74
2022/07/25 11:22:42;;;;;;;2.55;2.00;;;25.20;99.90;;;;;;5075385;28;20043;-72
2022/07/25 11:25:15;;;;;;;2.92;2.22;;;25.40;99.90;;;;;;5077617;28;20614;-74
2022/07/25 11:27:41;;;;;;;2.97;2.03;;;25.60;99.90;;;;;;5074205;28;20645;-74
2022/07/25 11:30:16;;;;;;;4.25;2.05;;;25.70;99.90;;;;;;5075074;28;20090;-76
2022/07/25 11:32:53;;;;;;;4.88;2.50;;;25.70;99.90;;;;;;5075948;28;20056;-75
2022/07/25 11:35:24;;;;;;;2.85;2.00;;;25.90;99.90;;;;;;5074974;28;20051;-77
2022/07/25 11:37:51;;;;;;;3.22;2.08;;;25.80;99.90;;;;;;5081332;28;20138;-75
2022/07/25 11:40:18;;;;;;;3.10;2.00;;;25.80;99.90;;;;;;5077611;28;20055;-75
2022/07/25 11:42:54;;;;;;;4.32;2.20;;;25.80;99.70;;;;;;5084095;28;20132;-76
2022/07/25 11:45:23;;;;;;;3.85;2.33;;;25.70;99.30;;;;;;5075023;28;20472;-74
2022/07/25 11:48:08;;;;;;;5.50;2.45;;;25.80;99.30;;;;;;5075412;28;20059;-76
2022/07/25 11:50:35;;;;;;;4.63;2.15;;;25.80;99.90;;;;;;5076358;28;20044;-75
2022/07/25 11:53:04;;;;;;;3.40;1.90;;;25.90;99.60;;;;;;5075504;28;20395;-76
2022/07/25 11:55:35;;;;;;;4.38;2.22;;;26.10;98.90;;;;;;5076949;28;20051;-76
2022/07/25 11:58:02;;;;;;;8.32;2.03;;;26.00;98.70;;;;;;5074366;28;20781;-76
2022/07/25 12:00:29;;;;;;;5.03;3.63;;;26.10;97.60;;;;;;5076642;28;20048;-74
2022/07/25 12:03:09;;;;;;;3.03;2.00;;;26.20;96.70;;;;;;5075615;28;20519;-76
2022/07/25 12:05:35;;;;;;;6.35;2.28;;;26.20;96.20;;;;;;5073864;28;20109;-73
2022/07/25 12:08:11;;;;;;;4.93;2.35;;;26.40;96.40;;;;;;5075321;28;20491;-76
2022/07/25 12:10:38;;;;;;;4.65;2.70;;;26.40;96.20;;;;;;5074803;28;20500;-73
2022/07/25 12:13:05;;;;;;;2.80;2.03;;;26.30;96.80;;;;;;5076758;28;20571;-76
2022/07/25 12:15:32;;;;;;;3.83;2.03;;;26.20;96.80;;;;;;5076364;28;20044;-77
2022/07/25 12:18:00;;;;;;;5.03;2.50;;;26.00;97.00;;;;;;5076487;28;20128;-75
2022/07/25 12:20:35;;;;;;;4.95;2.22;;;25.90;97.20;;;;;;5076112;28;20216;-76
2022/07/25 12:23:03;;;;;;;5.53;2.63;;;25.90;97.30;;;;;;5081112;28;20051;-75
2022/07/25 12:25:30;;;;;;;3.78;2.05;;;25.90;96.90;;;;;;5080728;28;20083;-73
2022/07/25 12:27:57;;;;;;;5.88;2.20;;;26.00;96.20;;;;;;5075321;28;20055;-76
2022/07/25 12:30:24;;;;;;;4.40;2.10;;;26.20;95.90;;;;;;5074699;28;20438;-76
2022/07/25 12:32:50;;;;;;;2.30;2.10;;;26.30;95.90;;;;;;5075072;28;20052;-76
2022/07/25 12:35:15;;;;;;;4.80;1.92;;;26.70;95.70;;;;;;5075052;28;20101;-74
2022/07/25 12:37:42;;;;;;;5.90;2.38;;;27.00;95.70;;;;;;5075746;28;20051;-76
2022/07/25 12:40:09;;;;;;;2.97;2.20;;;27.00;94.90;;;;;;5074656;28;20077;-78
2022/07/25 12:42:34;;;;;;;5.57;2.10;;;26.90;94.80;;;;;;5073550;28;20055;-74
2022/07/25 12:45:00;;;;;;;4.78;1.83;;;27.00;94.30;;;;;;5073648;28;20040;-75